Time;durP1;ratioP1;P1;durP2;ratioP2;P2;SDS_P1;SDS_P2;PMS_P1;PMS_P2;Temp;Humidity;BMP_temperature;BMP_pressure;BME280_temperature;BME280_humidity;BME280_pressure;Samples;Min_cycle;Max_cycle;Signal;HPM_P1;HPM_P2
2023/07/11 00:01:44;;;;;;;;;4.00;2.00;;;;;-142.59;100.00;56100.38;4967204;28;50214;-72
2023/07/11 00:04:09;;;;;;;;;5.25;4.50;;;;;-142.59;100.00;56100.38;4968053;28;69097;-71
2023/07/11 00:06:34;;;;;;;;;5.00;1.00;;;;;-142.59;100.00;56100.38;4968970;28;49997;-71
2023/07/11 00:09:00;;;;;;;;;6.75;3.00;;;;;-142.59;100.00;56100.38;4966930;28;69450;-71
2023/07/11 00:11:25;;;;;;;;;3.25;2.75;;;;;-142.59;100.00;56100.38;4966675;28;58968;-72
2023/07/11 00:13:51;;;;;;;;;7.00;6.50;;;;;-142.59;100.00;56100.38;4961794;28;50326;-71
2023/07/11 00:16:18;;;;;;;;;4.75;4.75;;;;;-142.59;100.00;56100.38;4966917;28;50104;-71
2023/07/11 00:18:44;;;;;;;;;10.75;10.50;;;;;-142.59;100.00;56100.38;4967450;28;51080;-71
2023/07/11 00:21:09;;;;;;;;;8.75;7.00;;;;;-142.59;100.00;56100.38;4968008;28;49804;-71
2023/07/11 00:23:35;;;;;;;;;3.25;3.25;;;;;-142.59;100.00;56100.38;4968655;28;49668;-71
2023/07/11 00:26:01;;;;;;;;;10.00;4.25;;;;;-142.59;100.00;56100.38;4968839;28;49963;-70
2023/07/11 00:28:26;;;;;;;;;7.25;7.25;;;;;-142.59;100.00;56100.38;4968997;28;51048;-70
2023/07/11 00:30:52;;;;;;;;;4.00;4.00;;;;;-142.59;100.00;56100.38;4968425;28;49827;-70
2023/07/11 00:33:18;;;;;;;;;6.75;6.75;;;;;-142.59;100.00;56100.38;4966996;28;57396;-70
2023/07/11 00:35:45;;;;;;;;;4.00;2.00;;;;;-142.59;100.00;56100.38;4968973;28;50127;-70
2023/07/11 00:38:12;;;;;;;;;0.50;0.50;;;;;-142.59;100.00;56100.38;4969026;28;52779;-70
2023/07/11 00:40:43;;;;;;;;;1.50;1.00;;;;;-142.59;100.00;56100.38;4971409;28;50329;-70
2023/07/11 00:43:14;;;;;;;;;63.75;56.25;;;;;-142.59;100.00;56100.38;4965952;28;50138;-70
2023/07/11 00:46:03;;;;;;;;;2.00;2.00;;;;;-142.59;100.00;56100.38;4970551;28;49786;-71
2023/07/11 00:48:31;;;;;;;;;3.00;3.00;;;;;-142.59;100.00;56100.38;4971438;28;52177;-70
2023/07/11 00:50:56;;;;;;;;;7.00;4.50;;;;;-142.59;100.00;56100.38;4977198;28;49802;-70
2023/07/11 00:53:25;;;;;;;;;2.00;1.00;;;;;-142.59;100.00;56100.38;4972217;28;49829;-71
2023/07/11 00:55:50;;;;;;;;;3.25;1.75;;;;;-142.59;100.00;56100.38;4971937;28;50088;-71
2023/07/11 00:58:19;;;;;;;;;1.25;1.25;;;;;-142.59;100.00;56100.38;4971890;28;50943;-71
2023/07/11 01:00:45;;;;;;;;;1.00;1.00;;;;;-142.59;100.00;56100.38;4971529;28;49912;-71
2023/07/11 01:03:10;;;;;;;;;1.00;0.00;;;;;-142.59;100.00;56100.38;4971997;28;49923;-70
2023/07/11 01:05:37;;;;;;;;;1.25;1.25;;;;;-142.59;100.00;56100.38;4971859;28;49647;-70
2023/07/11 01:08:02;;;;;;;;;1.00;1.00;;;;;-142.59;100.00;56100.38;4971884;28;49853;-70
2023/07/11 01:10:27;;;;;;;;;3.00;3.00;;;;;-142.59;100.00;56100.38;4970901;28;50130;-71
2023/07/11 01:12:59;;;;;;;;;2.00;2.00;;;;;-142.59;100.00;56100.38;4970207;28;49839;-70
2023/07/11 01:15:24;;;;;;;;;4.50;1.00;;;;;-142.59;100.00;56100.38;4970651;28;49774;-70
2023/07/11 01:17:50;;;;;;;;;3.00;1.75;;;;;-142.59;100.00;56100.38;4971559;28;50894;-70
2023/07/11 01:20:15;;;;;;;;;5.00;3.00;;;;;-142.59;100.00;56100.38;4970508;28;50069;-70
2023/07/11 01:22:41;;;;;;;;;5.00;2.00;;;;;-142.59;100.00;56100.38;4971598;28;50074;-70
2023/07/11 01:25:13;;;;;;;;;0.00;0.00;;;;;-142.59;100.00;56100.38;4972117;28;50118;-70
2023/07/11 01:27:41;;;;;;;;;11.50;9.50;;;;;-142.59;100.00;56100.38;4971207;28;51466;-70
2023/07/11 01:30:09;;;;;;;;;4.50;4.50;;;;;-142.59;100.00;56100.38;4971584;28;49801;-70
2023/07/11 01:32:34;;;;;;;;;5.00;5.00;;;;;-142.59;100.00;56100.38;4970213;28;50226;-70
2023/07/11 01:34:59;;;;;;;;;4.75;4.75;;;;;-142.59;100.00;56100.38;4971335;28;49576;-70
2023/07/11 01:37:25;;;;;;;;;2.00;2.00;;;;;-142.59;100.00;56100.38;4971597;28;50187;-70
2023/07/11 01:39:50;;;;;;;;;5.00;4.00;;;;;-142.59;100.00;56100.38;4971324;28;49971;-70
2023/07/11 01:42:16;;;;;;;;;3.00;0.75;;;;;-142.59;100.00;56100.38;4971322;28;49833;-70
2023/07/11 01:44:41;;;;;;;;;2.50;2.50;;;;;-142.59;100.00;56100.38;4971582;28;49664;-70
2023/07/11 01:47:07;;;;;;;;;2.50;2.00;;;;;-142.59;100.00;56100.38;4971186;28;50264;-71
2023/07/11 01:49:33;;;;;;;;;0.75;0.75;;;;;-142.59;100.00;56100.38;4971150;28;50088;-70
2023/07/11 01:52:05;;;;;;;;;4.50;4.50;;;;;-142.59;100.00;56100.38;4971324;28;50028;-70
2023/07/11 01:54:30;;;;;;;;;4.75;2.50;;;;;-142.59;100.00;56100.38;4971342;28;50066;-71
2023/07/11 01:56:56;;;;;;;;;0.75;0.50;;;;;-142.59;100.00;56100.38;4970897;28;50955;-71
2023/07/11 01:59:21;;;;;;;;;0.00;0.00;;;;;-142.59;100.00;56100.38;4971387;28;49767;-71
2023/07/11 02:01:46;;;;;;;;;4.00;4.00;;;;;-142.59;100.00;56100.38;4971186;28;50022;-70
2023/07/11 02:04:12;;;;;;;;;2.00;0.50;;;;;-142.59;100.00;56100.38;4971279;28;50091;-70
2023/07/11 02:06:37;;;;;;;;;2.50;1.00;;;;;-142.59;100.00;56100.38;4969606;28;50841;-70
2023/07/11 02:09:03;;;;;;;;;3.50;3.50;;;;;-142.59;100.00;56100.38;4970978;28;49936;-71
2023/07/11 02:11:28;;;;;;;;;1.00;1.00;;;;;-142.59;100.00;56100.38;4971057;28;49825;-71
2023/07/11 02:13:53;;;;;;;;;7.50;5.00;;;;;-142.59;100.00;56100.38;4971202;28;49622;-70
2023/07/11 02:16:19;;;;;;;;;1.25;1.25;;;;;-142.59;100.00;56100.38;4969282;28;49793;-70
2023/07/11 02:18:44;;;;;;;;;7.00;7.00;;;;;-142.59;100.00;56100.38;4970588;28;49794;-70
2023/07/11 02:21:09;;;;;;;;;0.00;0.00;;;;;-142.59;100.00;56100.38;4953536;28;50160;-70
2023/07/11 02:23:35;;;;;;;;;1.50;1.50;;;;;-142.59;100.00;56100.38;4970541;28;55329;-70
2023/07/11 02:26:00;;;;;;;;;2.50;2.50;;;;;-142.59;100.00;56100.38;4977065;28;66737;-70
2023/07/11 02:28:25;;;;;;;;;3.50;3.50;;;;;-142.59;100.00;56100.38;4970301;28;56838;-70
2023/07/11 02:30:50;;;;;;;;;3.50;3.50;;;;;-142.59;100.00;56100.38;4970316;28;49822;-70
2023/07/11 02:33:16;;;;;;;;;1.75;1.75;;;;;-142.59;100.00;56100.38;4971009;28;50017;-70
2023/07/11 02:35:41;;;;;;;;;4.75;2.50;;;;;-142.59;100.00;56100.38;4970097;28;65722;-70
2023/07/11 02:38:07;;;;;;;;;5.00;2.00;;;;;-142.59;100.00;56100.38;4969152;28;49790;-70
2023/07/11 02:40:32;;;;;;;;;7.00;4.00;;;;;-142.59;100.00;56100.38;4970480;28;49801;-70
2023/07/11 02:42:58;;;;;;;;;2.50;2.00;;;;;-142.59;100.00;56100.38;4970710;28;49811;-70
2023/07/11 02:45:23;;;;;;;;;0.00;0.00;;;;;-142.59;100.00;56100.38;4970439;28;49842;-70
2023/07/11 02:47:49;;;;;;;;;5.00;4.00;;;;;-142.59;100.00;56100.38;4970402;28;49887;-71
2023/07/11 02:50:15;;;;;;;;;2.00;2.00;;;;;-142.59;100.00;56100.38;4970617;28;50031;-70
2023/07/11 02:52:40;;;;;;;;;2.00;2.00;;;;;-142.59;100.00;56100.38;4970548;28;49945;-70
2023/07/11 02:55:06;;;;;;;;;3.00;3.00;;;;;-142.59;100.00;56100.38;4970214;28;51266;-71
2023/07/11 02:57:31;;;;;;;;;2.00;2.00;;;;;-142.59;100.00;56100.38;4970288;28;50026;-71
2023/07/11 02:59:56;;;;;;;;;3.00;3.00;;;;;-142.59;100.00;56100.38;4968399;28;57118;-70
2023/07/11 03:02:22;;;;;;;;;1.00;1.00;;;;;-142.59;100.00;56100.38;4970327;28;50083;-70
2023/07/11 03:04:47;;;;;;;;;3.50;1.75;;;;;-142.59;100.00;56100.38;4970180;28;50823;-70
2023/07/11 03:07:12;;;;;;;;;2.75;1.00;;;;;-142.59;100.00;56100.38;4970068;28;49747;-70
2023/07/11 03:09:38;;;;;;;;;3.50;2.50;;;;;-142.59;100.00;56100.38;4968358;28;53389;-70
2023/07/11 03:12:04;;;;;;;;;1.00;1.00;;;;;-142.59;100.00;56100.38;4968778;28;49954;-70
2023/07/11 03:14:30;;;;;;;;;7.00;5.00;;;;;-142.59;100.00;56100.38;4969895;28;50533;-70
2023/07/11 03:16:55;;;;;;;;;4.00;1.75;;;;;-142.59;100.00;56100.38;4969771;28;49952;-70
2023/07/11 03:19:21;;;;;;;;;5.00;3.50;;;;;-142.59;100.00;56100.38;4968893;28;61657;-70
2023/07/11 03:21:47;;;;;;;;;7.75;4.75;;;;;-142.59;100.00;56100.38;4969991;28;50060;-70
2023/07/11 03:24:12;;;;;;;;;5.00;3.50;;;;;-142.59;100.00;56100.38;4968478;28;50168;-71
2023/07/11 03:26:37;;;;;;;;;5.00;4.00;;;;;-142.59;100.00;56100.38;4969623;28;49812;-70
2023/07/11 03:29:03;;;;;;;;;2.00;2.00;;;;;-142.59;100.00;56100.38;4969492;28;49775;-70
2023/07/11 03:31:28;;;;;;;;;6.00;6.00;;;;;-142.59;100.00;56100.38;4970076;28;49984;-70
2023/07/11 03:33:53;;;;;;;;;3.75;3.75;;;;;-142.59;100.00;56100.38;4969649;28;50777;-70
2023/07/11 03:36:20;;;;;;;;;1.50;1.50;;;;;-142.59;100.00;56100.38;4969832;28;49712;-70
2023/07/11 03:38:46;;;;;;;;;6.00;4.75;;;;;-142.59;100.00;56100.38;4969493;28;49702;-70
2023/07/11 03:41:12;;;;;;;;;4.25;1.50;;;;;-142.59;100.00;56100.38;4969708;28;50421;-70
2023/07/11 03:43:37;;;;;;;;;2.50;2.50;;;;;-142.59;100.00;56100.38;4968669;28;49894;-70
2023/07/11 03:46:03;;;;;;;;;4.00;2.00;;;;;-142.59;100.00;56100.38;4967868;28;50072;-70
2023/07/11 03:48:29;;;;;;;;;1.00;1.00;;;;;-142.59;100.00;56100.38;4969813;28;49909;-71
2023/07/11 03:50:54;;;;;;;;;4.00;2.50;;;;;-142.59;100.00;56100.38;4968355;28;50152;-71
2023/07/11 03:53:20;;;;;;;;;1.00;1.00;;;;;-142.59;100.00;56100.38;4968753;28;65597;-71
2023/07/11 03:55:45;;;;;;;;;2.50;2.50;;;;;-142.59;100.00;56100.38;4969288;28;49843;-72
2023/07/11 03:58:11;;;;;;;;;2.50;2.50;;;;;-142.59;100.00;56100.38;4969657;28;50314;-71
2023/07/11 04:00:36;;;;;;;;;3.75;2.25;;;;;-142.59;100.00;56100.38;4969670;28;50038;-71
2023/07/11 04:03:02;;;;;;;;;4.50;4.50;;;;;-142.59;100.00;56100.38;4967449;28;61225;-70
2023/07/11 04:05:28;;;;;;;;;1.50;1.00;;;;;-142.59;100.00;56100.38;4969159;28;50100;-70
2023/07/11 04:07:54;;;;;;;;;2.50;2.50;;;;;-142.59;100.00;56100.38;4969077;28;49683;-70
2023/07/11 04:10:19;;;;;;;;;1.75;1.00;;;;;-142.59;100.00;56100.38;4968164;28;49816;-70
2023/07/11 04:12:45;;;;;;;;;4.50;4.25;;;;;-142.59;100.00;56100.38;4968914;28;50911;-70
2023/07/11 04:15:11;;;;;;;;;1.75;1.75;;;;;-142.59;100.00;56100.38;4968741;28;50017;-70
2023/07/11 04:17:36;;;;;;;;;5.00;5.00;;;;;-142.59;100.00;56100.38;4969338;28;50060;-70
2023/07/11 04:20:02;;;;;;;;;9.00;4.75;;;;;-142.59;100.00;56100.38;4967351;28;50289;-69
2023/07/11 04:22:29;;;;;;;;;7.00;5.00;;;;;-142.59;100.00;56100.38;4957730;28;51672;-70
2023/07/11 04:24:54;;;;;;;;;1.00;0.75;;;;;-142.59;100.00;56100.38;4967474;28;49762;-70
2023/07/11 04:27:19;;;;;;;;;4.50;1.75;;;;;-142.59;100.00;56100.38;4968956;28;49739;-70
2023/07/11 04:29:45;;;;;;;;;4.00;2.00;;;;;-142.59;100.00;56100.38;4968727;28;49994;-70
2023/07/11 04:32:10;;;;;;;;;5.25;4.75;;;;;-142.59;100.00;56100.38;4967661;28;50730;-70
2023/07/11 04:34:35;;;;;;;;;1.25;1.25;;;;;-142.59;100.00;56100.38;4968576;28;57905;-70
2023/07/11 04:37:01;;;;;;;;;7.75;5.00;;;;;-142.59;100.00;56100.38;4968536;28;49875;-70
2023/07/11 04:39:26;;;;;;;;;8.00;4.00;;;;;-142.59;100.00;56100.38;4967470;28;49993;-70
2023/07/11 04:41:51;;;;;;;;;3.50;1.75;;;;;-142.59;100.00;56100.38;4968338;28;50693;-71
2023/07/11 04:44:16;;;;;;;;;6.50;2.00;;;;;-142.59;100.00;56100.38;4968561;28;49918;-70
2023/07/11 04:46:42;;;;;;;;;1.50;1.50;;;;;-142.59;100.00;56100.38;4964816;28;61126;-70
2023/07/11 04:49:07;;;;;;;;;8.00;7.75;;;;;-142.59;100.00;56100.38;4971377;28;49717;-69
2023/07/11 04:51:32;;;;;;;;;8.00;5.00;;;;;-142.59;100.00;56100.38;4970852;28;49798;-69
2023/07/11 04:53:58;;;;;;;;;4.00;4.00;;;;;-142.59;100.00;56100.38;4968687;28;50141;-70
2023/07/11 04:56:23;;;;;;;;;0.75;0.50;;;;;-142.59;100.00;56100.38;4970661;28;49809;-71
2023/07/11 04:58:49;;;;;;;;;7.50;7.50;;;;;-142.59;100.00;56100.38;4967754;28;50831;-70
2023/07/11 05:01:16;;;;;;;;;11.25;7.50;;;;;-142.59;100.00;56100.38;4970548;28;50111;-70
2023/07/11 05:03:44;;;;;;;;;5.00;1.00;;;;;-142.59;100.00;56100.38;4969340;28;49887;-70
2023/07/11 05:06:12;;;;;;;;;4.25;4.25;;;;;-142.59;100.00;56100.38;4967440;28;50062;-70
2023/07/11 05:08:37;;;;;;;;;3.50;3.50;;;;;-142.59;100.00;56100.38;4972755;28;50026;-70
2023/07/11 05:11:14;;;;;;;;;10.75;4.25;;;;;-142.59;100.00;56100.38;4972414;28;51047;-70
2023/07/11 05:13:41;;;;;;;;;6.25;3.00;;;;;-142.59;100.00;56100.38;4972156;28;49842;-70
2023/07/11 05:16:10;;;;;;;;;4.00;4.00;;;;;-142.59;100.00;56100.38;4985751;28;49837;-70
2023/07/11 05:18:37;;;;;;;;;4.50;4.25;;;;;-142.59;100.00;56100.38;4970870;28;50134;-69
2023/07/11 05:21:03;;;;;;;;;4.00;4.00;;;;;-142.59;100.00;56100.38;4970702;28;50717;-78
2023/07/11 05:23:29;;;;;;;;;6.50;4.00;;;;;-142.59;100.00;56100.38;4972401;28;49936;-73
2023/07/11 05:25:55;;;;;;;;;4.75;4.75;;;;;-142.59;100.00;56100.38;4969882;28;49829;-71
2023/07/11 05:28:22;;;;;;;;;7.00;1.00;;;;;-142.59;100.00;56100.38;4970730;28;49853;-75
2023/07/11 05:30:47;;;;;;;;;3.00;3.00;;;;;-142.59;100.00;56100.38;4971674;28;49713;-69
2023/07/11 05:33:13;;;;;;;;;0.50;0.50;;;;;-142.59;100.00;56100.38;4971537;28;49778;-72
2023/07/11 05:35:46;;;;;;;;;2.00;2.00;;;;;-142.59;100.00;56100.38;4971653;28;49898;-73
2023/07/11 05:38:13;;;;;;;;;0.00;0.00;;;;;-142.59;100.00;56100.38;4971680;28;49817;-68
2023/07/11 05:40:41;;;;;;;;;0.25;0.00;;;;;-142.59;100.00;56100.38;4971497;28;50093;-68
2023/07/11 05:43:06;;;;;;;;;4.00;1.00;;;;;-142.59;100.00;56100.38;4968632;28;49834;-67
2023/07/11 05:45:31;;;;;;;;;7.75;6.50;;;;;-142.59;100.00;56100.38;4974824;28;49773;-69
2023/07/11 05:47:59;;;;;;;;;69.50;59.00;;;;;-142.59;100.00;56100.38;4965702;28;49811;-69
2023/07/11 05:50:24;;;;;;;;;0.25;0.00;;;;;-142.59;100.00;56100.38;4969997;28;50044;-68
2023/07/11 05:52:50;;;;;;;;;1.50;1.00;;;;;-142.59;100.00;56100.38;4970982;28;50085;-68
2023/07/11 05:55:15;;;;;;;;;0.00;0.00;;;;;-142.59;100.00;56100.38;4971285;28;56039;-70
2023/07/11 05:57:40;;;;;;;;;1.00;0.00;;;;;-142.59;100.00;56100.38;4971517;28;49707;-69
2023/07/11 06:00:09;;;;;;;;;0.50;0.50;;;;;-142.59;100.00;56100.38;4969835;28;50955;-69
2023/07/11 06:02:34;;;;;;;;;93.33;76.67;;;;;-142.59;100.00;56100.38;4971133;28;49871;-69
2023/07/11 06:05:00;;;;;;;;;75.00;61.50;;;;;-142.59;100.00;56100.38;4971979;28;50827;-67
2023/07/11 06:07:27;;;;;;;;;105.33;92.67;;;;;-142.59;100.00;56100.38;4971242;28;49995;-68
2023/07/11 06:09:52;;;;;;;;;99.67;82.00;;;;;-142.59;100.00;56100.38;4969530;28;50566;-67
2023/07/11 06:12:18;;;;;;;;;69.75;60.75;;;;;-142.59;100.00;56100.38;4971023;28;50151;-66
2023/07/11 06:14:43;;;;;;;;;74.25;62.75;;;;;-142.59;100.00;56100.38;4970417;28;49829;-67
2023/07/11 06:17:08;;;;;;;;;93.67;78.00;;;;;-142.59;100.00;56100.38;4970956;28;49778;-67
2023/07/11 06:19:34;;;;;;;;;75.00;64.00;;;;;-142.59;100.00;56100.38;4970529;28;50557;-66
2023/07/11 06:22:00;;;;;;;;;92.33;75.67;;;;;-142.59;100.00;56100.38;4969356;28;50261;-66
2023/07/11 06:24:25;;;;;;;;;94.00;78.00;;;;;-142.59;100.00;56100.38;4971044;28;50071;-66
2023/07/11 06:26:50;;;;;;;;;102.00;87.67;;;;;-142.59;100.00;56100.38;4970966;28;49572;-67
2023/07/11 06:29:16;;;;;;;;;114.00;106.67;;;;;-142.59;100.00;56100.38;4970163;28;64392;-66
2023/07/11 06:31:43;;;;;;;;;114.33;108.67;;;;;-142.59;100.00;56100.38;4951058;28;49895;-67
2023/07/11 06:34:08;;;;;;;;;115.67;112.00;;;;;-142.59;100.00;56100.38;4950905;28;49645;-67
2023/07/11 06:36:34;;;;;;;;;109.00;99.67;;;;;-142.59;100.00;56100.38;4951171;28;49775;-67
2023/07/11 06:38:59;;;;;;;;;1.00;0.00;;;;;-142.59;100.00;56100.38;4949274;28;60707;-68
2023/07/11 06:41:24;;;;;;;;;1.50;1.25;;;;;-142.59;100.00;56100.38;4946747;28;62301;-67
2023/07/11 06:43:50;;;;;;;;;3.00;2.00;;;;;-142.59;100.00;56100.38;4950907;28;49783;-67
2023/07/11 06:46:15;;;;;;;;;1.00;1.00;;;;;-142.59;100.00;56100.38;4950526;28;55356;-68
2023/07/11 06:48:41;;;;;;;;;4.00;1.25;;;;;-142.59;100.00;56100.38;4948776;28;63482;-68
2023/07/11 06:51:06;;;;;;;;;4.00;4.00;;;;;-142.59;100.00;56100.38;4950678;28;50058;-68
2023/07/11 06:53:34;;;;;;;;;4.50;1.00;;;;;-142.59;100.00;56100.38;4949287;28;49934;-68
2023/07/11 06:56:00;;;;;;;;;2.00;2.00;;;;;-142.59;100.00;56100.38;4950918;28;50093;-68
2023/07/11 06:58:26;;;;;;;;;1.00;0.00;;;;;-142.59;100.00;56100.38;4950468;28;50338;-68
2023/07/11 07:00:58;;;;;;;;;4.00;4.00;;;;;-142.59;100.00;56100.38;4950496;28;50013;-67
2023/07/11 07:03:23;;;;;;;;;4.00;4.00;;;;;-142.59;100.00;56100.38;4950337;28;50080;-68
2023/07/11 07:05:53;;;;;;;;;4.00;1.00;;;;;-142.59;100.00;56100.38;4950566;28;49762;-73
2023/07/11 07:08:20;;;;;;;;;1.00;1.00;;;;;-142.59;100.00;56100.38;4948970;28;51557;-73
2023/07/11 07:10:47;;;;;;;;;3.50;1.00;;;;;-142.59;100.00;56100.38;4950563;28;49887;-74
2023/07/11 07:13:13;;;;;;;;;0.25;0.25;;;;;-142.59;100.00;56100.38;4950409;28;50099;-76
2023/07/11 07:15:38;;;;;;;;;8.00;8.00;;;;;-142.59;100.00;56100.38;4950639;28;49639;-74
2023/07/11 07:18:04;;;;;;;;;0.00;0.00;;;;;-142.59;100.00;56100.38;4949700;28;49784;-74
2023/07/11 07:20:29;;;;;;;;;1.25;1.25;;;;;-142.59;100.00;56100.38;4950401;28;49914;-74
2023/07/11 07:22:54;;;;;;;;;1.75;1.00;;;;;-142.59;100.00;56100.38;4949801;28;50037;-74
2023/07/11 07:25:19;;;;;;;;;0.75;0.75;;;;;-142.59;100.00;56100.38;4950315;28;49725;-74
2023/07/11 07:27:45;;;;;;;;;3.25;1.50;;;;;-142.59;100.00;56100.38;4949418;28;50439;-73
2023/07/11 07:30:11;;;;;;;;;12.25;12.25;;;;;-142.59;100.00;56100.38;4950163;28;49671;-74
2023/07/11 07:32:37;;;;;;;;;5.25;3.75;;;;;-142.59;100.00;56100.38;4950307;28;50003;-74
2023/07/11 07:35:02;;;;;;;;;5.00;4.00;;;;;-142.59;100.00;56100.38;4950048;28;49980;-74
2023/07/11 07:37:28;;;;;;;;;1.00;1.00;;;;;-142.59;100.00;56100.38;4950034;28;51362;-74
2023/07/11 07:39:53;;;;;;;;;0.00;0.00;;;;;-142.59;100.00;56100.38;4950142;28;49782;-74
2023/07/11 07:42:18;;;;;;;;;5.25;4.00;;;;;-142.59;100.00;56100.38;4950306;28;50414;-74
2023/07/11 07:44:44;;;;;;;;;4.00;3.50;;;;;-142.59;100.00;56100.38;4953975;28;49753;-73
2023/07/11 07:47:09;;;;;;;;;0.00;0.00;;;;;-142.59;100.00;56100.38;4948815;28;66404;-74
2023/07/11 07:49:34;;;;;;;;;3.50;1.25;;;;;-142.59;100.00;56100.38;4949721;28;50118;-74
2023/07/11 07:52:00;;;;;;;;;1.75;1.75;;;;;-142.59;100.00;56100.38;4948001;28;60122;-74
2023/07/11 07:54:26;;;;;;;;;2.00;1.00;;;;;-142.59;100.00;56100.38;4949675;28;52678;-74
2023/07/11 07:56:52;;;;;;;;;1.75;1.75;;;;;-142.59;100.00;56100.38;4949676;28;50978;-74
2023/07/11 07:59:17;;;;;;;;;0.75;0.75;;;;;-142.59;100.00;56100.38;4949509;28;49832;-74
2023/07/11 08:01:43;;;;;;;;;1.00;1.00;;;;;-142.59;100.00;56100.38;4949399;28;55731;-74
2023/07/11 08:04:08;;;;;;;;;5.00;5.00;;;;;-142.59;100.00;56100.38;4949841;28;50449;-75
2023/07/11 08:06:33;;;;;;;;;1.75;1.75;;;;;-142.59;100.00;56100.38;4948076;28;50956;-74
2023/07/11 08:08:58;;;;;;;;;2.00;1.25;;;;;-142.59;100.00;56100.38;4951725;28;61329;-74
2023/07/11 08:11:24;;;;;;;;;1.00;0.00;;;;;-142.59;100.00;56100.38;4949651;28;49860;-74
2023/07/11 08:13:50;;;;;;;;;0.00;0.00;;;;;-142.59;100.00;56100.38;4949658;28;50029;-75
2023/07/11 08:16:16;;;;;;;;;2.00;2.00;;;;;-142.59;100.00;56100.38;4949406;28;50409;-74
2023/07/11 08:18:41;;;;;;;;;4.00;1.50;;;;;-142.59;100.00;56100.38;4949078;28;50159;-73
2023/07/11 08:21:06;;;;;;;;;1.00;1.00;;;;;-142.59;100.00;56100.38;4948083;28;49888;-74
2023/07/11 08:23:32;;;;;;;;;1.00;1.00;;;;;-142.59;100.00;56100.38;4949750;28;50053;-74
2023/07/11 08:25:57;;;;;;;;;1.00;1.00;;;;;-142.59;100.00;56100.38;4948940;28;64619;-73
2023/07/11 08:28:22;;;;;;;;;2.00;2.00;;;;;-142.59;100.00;56100.38;4949033;28;49763;-74
2023/07/11 08:30:49;;;;;;;;;2.00;1.00;;;;;-142.59;100.00;56100.38;4949637;28;49695;-74
2023/07/11 08:33:14;;;;;;;;;2.00;2.00;;;;;-142.59;100.00;56100.38;4949384;28;49712;-73
2023/07/11 08:35:40;;;;;;;;;1.75;1.75;;;;;-142.59;100.00;56100.38;4949312;28;50282;-73
2023/07/11 08:38:11;;;;;;;;;2.25;1.50;;;;;-142.59;100.00;56100.38;4949262;28;50069;-73
2023/07/11 08:40:43;;;;;;;;;0.00;0.00;;;;;-142.59;100.00;56100.38;4945117;28;50139;-73
2023/07/11 08:43:13;;;;;;;;;1.25;1.25;;;;;-142.59;100.00;56100.38;4948555;28;50104;-74
2023/07/11 08:45:48;;;;;;;;;0.25;0.25;;;;;-142.59;100.00;56100.38;4944670;28;51156;-74
2023/07/11 08:48:27;;;;;;;;;4.75;4.75;;;;;-142.59;100.00;56100.38;4943895;28;49966;-74
2023/07/11 08:51:05;;;;;;;;;2.75;2.00;;;;;-142.59;100.00;56100.38;4945383;28;49854;-74
2023/07/11 08:53:41;;;;;;;;;2.50;2.00;;;;;-142.59;100.00;56100.38;4949419;28;50233;-74
2023/07/11 08:56:22;;;;;;;;;6.50;5.00;;;;;-142.59;100.00;56100.38;4963724;28;53139;-74
2023/07/11 08:58:49;;;;;;;;;4.75;4.00;;;;;-142.59;100.00;56100.38;4964803;28;49932;-74
2023/07/11 09:01:29;;;;;;;;;0.00;0.00;;;;;-142.59;100.00;56100.38;4952933;28;49791;-74
2023/07/11 09:03:58;;;;;;;;;2.00;2.00;;;;;-142.59;100.00;56100.38;4953208;28;49776;-74
2023/07/11 09:06:36;;;;;;;;;1.25;1.25;;;;;-142.59;100.00;56100.38;4945693;28;49810;-74
2023/07/11 09:09:01;;;;;;;;;6.50;6.50;;;;;-142.59;100.00;56100.38;4952413;28;49620;-74
2023/07/11 09:11:36;;;;;;;;;1.00;1.00;;;;;-142.59;100.00;56100.38;4952157;28;49851;-74
2023/07/11 09:14:31;;;;;;;;;2.00;0.50;;;;;-142.59;100.00;56100.38;4948673;28;49885;-74
2023/07/11 09:17:16;;;;;;;;;4.25;3.50;;;;;-142.59;100.00;56100.38;4951799;28;50093;-74
2023/07/11 09:19:54;;;;;;;;;7.00;7.00;;;;;-142.59;100.00;56100.38;4920360;28;49993;-74
2023/07/11 09:22:28;;;;;;;;;2.00;2.00;;;;;-142.59;100.00;56100.38;4952253;28;50093;-74
2023/07/11 09:25:07;;;;;;;;;4.75;4.75;;;;;-142.59;100.00;56100.38;4952092;28;50052;-74
2023/07/11 09:27:44;;;;;;;;;4.50;2.50;;;;;-142.59;100.00;56100.38;4950196;28;50952;-74
2023/07/11 09:30:30;;;;;;;;;1.00;1.00;;;;;-142.59;100.00;56100.38;4951934;28;49743;-74
2023/07/11 09:33:10;;;;;;;;;1.75;1.75;;;;;-142.59;100.00;56100.38;4948315;28;49795;-74
2023/07/11 09:35:37;;;;;;;;;1.00;1.00;;;;;-142.59;100.00;56100.38;4952169;28;50128;-74
2023/07/11 09:38:28;;;;;;;;;4.00;0.50;;;;;-142.59;100.00;56100.38;4951252;28;50000;-75
2023/07/11 09:41:10;;;;;;;;;2.00;2.00;;;;;-142.59;100.00;56100.38;4951837;28;49789;-75
2023/07/11 09:43:35;;;;;;;;;2.00;0.75;;;;;-142.59;100.00;56100.38;4953166;28;49735;-75
2023/07/11 09:46:01;;;;;;;;;1.00;1.00;;;;;-142.59;100.00;56100.38;4946349;28;50046;-75
2023/07/11 09:48:32;;;;;;;;;2.00;2.00;;;;;-142.59;100.00;56100.38;4951603;28;62455;-74
2023/07/11 09:51:00;;;;;;;;;1.00;1.00;;;;;-142.59;100.00;56100.38;4953506;28;50061;-75
2023/07/11 09:53:28;;;;;;;;;0.00;0.00;;;;;-142.59;100.00;56100.38;4952387;28;49992;-76
2023/07/11 09:55:59;;;;;;;;;1.50;0.25;;;;;-142.59;100.00;56100.38;4952084;28;50069;-75
2023/07/11 09:58:32;;;;;;;;;3.00;3.00;;;;;-142.59;100.00;56100.38;4951402;28;51016;-74
2023/07/11 10:01:03;;;;;;;;;2.00;2.00;;;;;-142.59;100.00;56100.38;4951498;28;49807;-75
2023/07/11 10:03:30;;;;;;;;;4.25;2.00;;;;;-142.59;100.00;56100.38;4951648;28;50294;-74
2023/07/11 10:05:56;;;;;;;;;4.00;4.00;;;;;-142.59;100.00;56100.38;4951678;28;49969;-75
2023/07/11 10:08:30;;;;;;;;;5.00;4.00;;;;;-142.59;100.00;56100.38;4951091;28;50099;-74
2023/07/11 10:11:02;;;;;;;;;2.00;2.00;;;;;-142.59;100.00;56100.38;4962381;28;49836;-73
2023/07/11 10:13:28;;;;;;;;;2.00;2.00;;;;;-142.59;100.00;56100.38;4950627;28;49919;-73
2023/07/11 10:15:55;;;;;;;;;1.00;1.00;;;;;-142.59;100.00;56100.38;4951626;28;49921;-74
2023/07/11 10:18:24;;;;;;;;;3.50;1.00;;;;;-142.59;100.00;56100.38;4951032;28;51286;-74
2023/07/11 10:20:55;;;;;;;;;1.50;0.25;;;;;-142.59;100.00;56100.38;4951173;28;49752;-74
2023/07/11 10:23:24;;;;;;;;;2.00;2.00;;;;;-142.59;100.00;56100.38;4951388;28;49842;-73
2023/07/11 10:26:02;;;;;;;;;2.00;2.00;;;;;-142.59;100.00;56100.38;4951339;28;50005;-74
2023/07/11 10:28:33;;;;;;;;;4.50;1.75;;;;;-142.59;100.00;56100.38;4951008;28;50326;-74
2023/07/11 10:31:14;;;;;;;;;2.00;2.00;;;;;-142.59;100.00;56100.38;4951010;28;49814;-73
2023/07/11 10:33:52;;;;;;;;;0.75;0.75;;;;;-142.59;100.00;56100.38;4952500;28;49688;-74
2023/07/11 10:36:22;;;;;;;;;2.75;2.00;;;;;-142.59;100.00;56100.38;4952332;28;49831;-73
2023/07/11 10:39:00;;;;;;;;;3.00;1.00;;;;;-142.59;100.00;56100.38;4951744;28;50473;-73
2023/07/11 10:41:33;;;;;;;;;1.00;1.00;;;;;-142.59;100.00;56100.38;4952216;28;49886;-71
2023/07/11 10:44:04;;;;;;;;;0.00;0.00;;;;;-142.59;100.00;56100.38;4951867;28;49732;-73
2023/07/11 10:46:45;;;;;;;;;1.00;1.00;;;;;-142.59;100.00;56100.38;4951938;28;49689;-72
2023/07/11 10:49:35;;;;;;;;;1.00;1.00;;;;;-142.59;100.00;56100.38;4951673;28;50171;-75
2023/07/11 10:52:08;;;;;;;;;3.50;1.75;;;;;-142.59;100.00;56100.38;4950636;28;50249;-76
2023/07/11 10:54:49;;;;;;;;;1.00;1.00;;;;;-142.59;100.00;56100.38;4950875;28;49975;-76
2023/07/11 10:57:31;;;;;;;;;4.25;3.50;;;;;-142.59;100.00;56100.38;4950652;28;49655;-74
2023/07/11 10:59:56;;;;;;;;;4.25;4.25;;;;;-142.59;100.00;56100.38;4950511;28;49830;-76
2023/07/11 11:02:38;;;;;;;;;4.00;1.25;;;;;-142.59;100.00;56100.38;4950663;28;50158;-76
2023/07/11 11:05:31;;;;;;;;;1.75;1.75;;;;;-142.59;100.00;56100.38;4950807;28;49763;-77
2023/07/11 11:08:14;;;;;;;;;1.00;1.00;;;;;-142.59;100.00;56100.38;4942136;28;49895;-74
2023/07/11 11:10:52;;;;;;;;;1.75;0.75;;;;;-142.59;100.00;56100.38;4950124;28;50733;-74